Cazaux (BA 120) Air Base

LFBC · Landes, Nouvelle-Aquitaine, 法国

使用的METAR站距离机场85 km。
罗盘
风向 的 风向 的 风向 到 风向 350° Cazaux (BA 120) Air Base 6/24
风: 10 kt, 3 beaufort

4 kt

9 kt
改变
0 ft 1.000 2.000 3.000 4.000 5.000
CAVOK
METAR LFBM 221330Z AUTO 35010KT 320V020 CAVOK 14/M03 Q1022 NOSIG

METAR Cazaux (BA 120) Air Base - LFBC

Cazaux (BA 120) Air Base是,法国中的中型机场。 该机场位于纬度44,53400和经度-1,12537。 该机场有一条跑道: 6/24. 本场的ICAO机场代码为LFBC。 机场在Bordeaux FIR中。

该航空气象观测是针对Mont-de-Marsan (BA 118) Air Base在2024年4月22日 15:30, 当地时间进行的。

机场观察

风向为350°,速度为10 kt。 风向在320°和020°之间变化。

天气为CAVOK。这意味着在5.000 ft或MSA(最低安全高度)以下(以较高者为准)以下没有云。这也意味着没有观测到积雨云或高耸的积云,可见度为10 km 或者更多或更高。此外,不会有雾,降雨或其他重要天气。

温度和风寒是14 °C。 露点为-3 °C,相对湿度为31%。 海平面上的气压为1022 hPa (QNH)。

白天

今天,太阳从07:07升起,在20:58降落。 这适用于Cazaux (BA 120) Air Base,世界夏令时可能有所不同。 当地时间与世界标准时间之间的时差为+2 小时。 夏令时目前正在进行中。

公司介绍

我们没有关于这个机场的公司信息。

体会

到Vliegles.nl去找飞行课程,跳伞和其他飞行体验。 浏览页面,了解Cazaux (BA 120) Air Base附近所有可用的活动。 你也可以使用搜索功能来寻找你所在地附近的特定飞行课程、跳伞或其他飞行体验。

跑道

Id 标题 侧风 逆风 侧风 %
6/24 057°-237° 9 kt 4 kt 92 %

逆风成分最大的方向会被突出显示,并用于横风计算。 这并不一定意味着这个方向在使用。

温度 & 天气

温度 14 °C
露点 -3 °C
相对湿度 31%
Kp-index 1 (0-9)

白天

日出
07:06
中午
14:00
日落
20:54 (4:56)

小工具

你想在你的网站上有一个关于Cazaux (BA 120) Air Base的当前航空天气(METAR)的小部件吗?

显示HTML代码
报告变更